Aviation Digital Data Service (ADDS)

Output produced by METARs form (1031 UTC 07 February 2016)
found at http://aviationweather.gov/adds/metars/
 
KVQQ 070701Z 0707/0806 33011G17KT 3SM -RA BR BKN006 OVC015 
     TEMPO 0707/0711 1SM -RA BR BKN002 OVC006 
     FM071200 32012G22KT P6SM VCSH SCT009 OVC016 
     FM071500 32013G23KT P6SM SCT015 BKN025 
     FM071700 31014G24KT P6SM SCT040 
     FM072300 29007KT P6SM SKC